createdAt,value
2023-05-21T00:02:10.008Z,87.74
2023-05-21T00:05:15.566Z,87.43
2023-05-21T00:08:18.318Z,88.05
2023-05-21T00:11:22.331Z,87.22
2023-05-21T00:14:24.962Z,86.25
2023-05-21T00:17:27.644Z,88.93
2023-05-21T00:20:32.847Z,87.45
2023-05-21T00:23:37.492Z,87.31
2023-05-21T00:26:40.225Z,87.40
2023-05-21T00:29:44.354Z,86.37
2023-05-21T00:32:47.382Z,87.39
2023-05-21T00:35:51.382Z,87.79
2023-05-21T00:38:54.150Z,87.37
2023-05-21T00:41:57.880Z,88.30
2023-05-21T00:45:00.584Z,88.75
2023-05-21T00:48:04.224Z,87.02
2023-05-21T00:51:08.403Z,88.85
2023-05-21T00:54:11.230Z,88.58
2023-05-21T00:57:14.866Z,89.30
2023-05-21T01:00:17.834Z,89.16
2023-05-21T01:03:20.637Z,90.64
2023-05-21T01:06:24.891Z,89.70
2023-05-21T01:09:27.967Z,89.89
2023-05-21T01:12:32.417Z,88.76
2023-05-21T01:15:35.646Z,88.75
2023-05-21T01:18:38.950Z,89.21
2023-05-21T01:21:46.568Z,90.82
2023-05-21T01:24:52.980Z,90.09
2023-05-21T01:27:56.014Z,90.12
2023-05-21T01:31:03.809Z,90.41
2023-05-21T01:34:09.351Z,90.28
2023-05-21T01:37:17.987Z,90.61
2023-05-21T01:40:30.791Z,91.35
2023-05-21T01:43:35.819Z,91.88
2023-05-21T01:46:39.533Z,92.97
2023-05-21T01:49:42.767Z,92.37
2023-05-21T01:52:50.944Z,92.35
2023-05-21T01:55:55.318Z,91.83
2023-05-21T01:58:59.389Z,92.82
2023-05-21T02:02:02.135Z,91.88
2023-05-21T02:05:05.024Z,91.51
2023-05-21T02:08:08.557Z,92.27
2023-05-21T02:11:12.536Z,92.26
2023-05-21T02:14:15.180Z,93.32
2023-05-21T02:17:18.518Z,93.56
2023-05-21T02:20:22.298Z,92.80
2023-05-21T02:23:24.933Z,94.09
2023-05-21T02:26:28.970Z,93.77
2023-05-21T02:29:31.600Z,93.65
2023-05-21T02:32:34.890Z,93.33
2023-05-21T02:35:37.797Z,93.91
2023-05-21T02:38:43.486Z,93.11
2023-05-21T02:41:48.162Z,93.49
2023-05-21T02:44:51.167Z,94.75
2023-05-21T02:47:53.822Z,93.40
2023-05-21T02:50:56.468Z,93.61
2023-05-21T02:53:59.108Z,95.41
2023-05-21T02:57:03.127Z,94.46
2023-05-21T03:00:08.342Z,94.52
2023-05-21T03:03:11.607Z,95.52
2023-05-21T03:06:14.318Z,96.07
2023-05-21T03:09:16.951Z,95.28
2023-05-21T03:12:20.970Z,94.74
2023-05-21T03:15:24.442Z,94.50
2023-05-21T03:18:27.136Z,95.38
2023-05-21T03:21:30.185Z,94.85
2023-05-21T03:24:33.113Z,95.79
2023-05-21T03:27:37.262Z,96.26
2023-05-21T03:30:39.879Z,97.65
2023-05-21T03:33:42.553Z,97.58
2023-05-21T03:36:45.165Z,96.41
2023-05-21T03:39:47.796Z,97.40
2023-05-21T03:42:51.913Z,97.46
2023-05-21T03:45:55.720Z,97.07
2023-05-21T03:48:59.081Z,96.94
2023-05-21T03:52:01.734Z,96.89
2023-05-21T03:55:04.605Z,97.32
2023-05-21T03:58:09.523Z,97.55
2023-05-21T04:01:12.379Z,98.36
2023-05-21T04:04:15.200Z,100.00
2023-05-21T04:07:19.152Z,99.53
2023-05-21T04:10:23.046Z,99.68
2023-05-21T04:13:28.232Z,100.00
2023-05-21T04:16:30.986Z,100.00
2023-05-21T04:19:33.984Z,99.83
2023-05-21T04:22:36.670Z,99.72
2023-05-21T04:25:39.640Z,100.00
2023-05-21T04:28:43.611Z,100.00
2023-05-21T04:31:46.548Z,100.00
2023-05-21T04:34:49.820Z,100.00
2023-05-21T04:37:54.943Z,100.00
2023-05-21T04:40:58.694Z,99.69
2023-05-21T04:44:02.680Z,100.00
2023-05-21T04:47:05.799Z,99.06
2023-05-21T04:50:10.599Z,99.38
2023-05-21T04:53:13.232Z,98.50
2023-05-21T04:56:15.843Z,99.66
2023-05-21T04:59:20.101Z,98.18
2023-05-21T05:02:22.780Z,98.15
2023-05-21T05:05:25.452Z,98.47
2023-05-21T05:08:28.077Z,98.76
2023-05-21T05:11:30.723Z,98.84
2023-05-21T05:14:34.704Z,98.51
2023-05-21T05:17:37.404Z,99.61
2023-05-21T05:20:40.131Z,98.61
2023-05-21T05:23:42.752Z,98.60
2023-05-21T05:26:45.514Z,98.13
2023-05-21T05:29:49.495Z,99.73
2023-05-21T05:32:52.278Z,100.00
2023-05-21T05:35:55.076Z,100.00
2023-05-21T05:38:57.686Z,99.81
2023-05-21T05:42:00.384Z,98.57
2023-05-21T05:45:04.863Z,97.63
2023-05-21T05:48:07.859Z,97.81
2023-05-21T05:51:11.829Z,98.17
2023-05-21T05:54:14.464Z,97.31
2023-05-21T05:57:17.139Z,96.32
2023-05-21T06:00:21.181Z,97.79
2023-05-21T06:03:23.950Z,97.73
2023-05-21T06:06:26.706Z,97.81
2023-05-21T06:09:29.378Z,96.83
2023-05-21T06:12:32.444Z,96.45
2023-05-21T06:15:36.598Z,96.42
2023-05-21T06:18:39.678Z,97.81
2023-05-21T06:21:42.339Z,96.65
2023-05-21T06:24:45.083Z,96.52
2023-05-21T06:27:47.769Z,95.96
2023-05-21T06:30:51.802Z,97.15
2023-05-21T06:33:54.658Z,97.80
2023-05-21T06:36:57.482Z,97.81
2023-05-21T06:40:00.169Z,96.20
2023-05-21T06:43:04.791Z,97.45
2023-05-21T06:46:08.806Z,98.69
2023-05-21T06:49:14.325Z,97.53
2023-05-21T06:52:17.209Z,97.68
2023-05-21T06:55:19.970Z,97.47
2023-05-21T06:58:22.830Z,97.11
2023-05-21T07:01:26.946Z,97.87
2023-05-21T07:04:29.558Z,99.47
2023-05-21T07:07:32.245Z,95.89
2023-05-21T07:10:34.877Z,98.05
2023-05-21T07:13:37.582Z,97.87
2023-05-21T07:16:41.636Z,97.78
2023-05-21T07:19:44.280Z,96.01
2023-05-21T07:22:46.943Z,97.94
2023-05-21T07:25:49.596Z,96.55
2023-05-21T07:28:52.224Z,99.04
2023-05-21T07:31:56.215Z,96.92
2023-05-21T07:35:01.805Z,96.35
2023-05-21T07:38:04.707Z,96.18
2023-05-21T07:41:07.388Z,94.26
2023-05-21T07:44:10.048Z,93.95
2023-05-21T07:47:14.006Z,94.00
2023-05-21T07:50:16.691Z,91.69
2023-05-21T07:53:19.533Z,91.56
2023-05-21T07:56:22.802Z,89.43
2023-05-21T07:59:25.913Z,88.94
2023-05-21T08:02:29.915Z,90.87
2023-05-21T08:05:33.584Z,92.19
2023-05-21T08:08:36.213Z,93.11
2023-05-21T08:11:38.927Z,92.35
2023-05-21T08:14:41.564Z,91.13
2023-05-21T08:17:45.845Z,92.17
2023-05-21T08:20:48.600Z,91.17
2023-05-21T08:23:53.911Z,90.61
2023-05-21T08:26:56.553Z,90.72
2023-05-21T08:29:59.216Z,90.76
2023-05-21T08:33:03.523Z,90.21
2023-05-21T08:36:07.127Z,88.72
2023-05-21T08:39:09.903Z,89.26
2023-05-21T08:42:35.748Z,88.96
2023-05-21T08:45:42.922Z,91.06
2023-05-21T08:48:48.556Z,88.02
2023-05-21T08:51:52.368Z,89.23
2023-05-21T08:54:57.296Z,89.85
2023-05-21T08:57:59.944Z,88.62
2023-05-21T09:01:04.631Z,89.58
2023-05-21T09:04:20.411Z,88.53
2023-05-21T09:07:27.455Z,88.04
2023-05-21T09:10:36.820Z,88.84
2023-05-21T09:13:41.213Z,87.57
2023-05-21T09:16:43.850Z,87.13
2023-05-21T09:20:12.251Z,88.68
2023-05-21T09:23:18.405Z,85.25
2023-05-21T09:26:22.709Z,85.83
2023-05-21T09:29:26.278Z,83.96
2023-05-21T09:32:28.931Z,84.64
2023-05-21T09:35:36.109Z,87.61
2023-05-21T09:38:39.540Z,82.07
2023-05-21T09:41:43.446Z,80.99
2023-05-21T09:44:46.139Z,83.04
2023-05-21T09:47:50.175Z,81.12
2023-05-21T09:50:54.263Z,78.83
2023-05-21T09:53:58.257Z,76.10
2023-05-21T09:57:02.371Z,75.75
2023-05-21T10:00:06.498Z,76.25
2023-05-21T10:03:13.088Z,73.38
2023-05-21T10:06:19.531Z,74.69
2023-05-21T10:09:22.657Z,68.36
2023-05-21T10:12:26.117Z,67.78
2023-05-21T10:15:32.253Z,67.68
2023-05-21T10:18:35.534Z,66.54
2023-05-21T10:21:40.749Z,67.74
2023-05-21T10:24:44.461Z,66.06
2023-05-21T10:27:48.012Z,67.00
2023-05-21T10:30:51.222Z,65.10
2023-05-21T10:33:55.084Z,63.83
2023-05-21T10:37:00.858Z,64.86
2023-05-21T10:40:04.166Z,64.81
2023-05-21T10:43:27.384Z,64.16
2023-05-21T10:46:53.554Z,64.08
2023-05-21T10:50:34.609Z,60.05
2023-05-21T10:53:56.248Z,61.05
2023-05-21T10:57:11.705Z,60.04
2023-05-21T11:00:17.160Z,61.78
2023-05-21T11:03:20.917Z,59.42
2023-05-21T11:06:25.336Z,57.65
2023-05-21T11:09:29.321Z,59.40
2023-05-21T11:12:35.552Z,58.74
2023-05-21T11:16:14.396Z,57.24
2023-05-21T11:19:18.892Z,54.49
2023-05-21T11:22:23.513Z,55.38
2023-05-21T11:25:27.558Z,55.29
2023-05-21T11:28:34.185Z,54.29
2023-05-21T11:31:40.800Z,54.78
2023-05-21T11:34:45.814Z,56.47
2023-05-21T11:37:55.057Z,52.76
2023-05-21T11:41:02.836Z,51.53
2023-05-21T11:44:09.633Z,51.28
2023-05-21T11:47:14.809Z,51.16
2023-05-21T11:50:17.980Z,53.32
2023-05-21T11:53:20.764Z,52.58
2023-05-21T11:56:25.369Z,52.61
2023-05-21T11:59:28.001Z,52.73
2023-05-21T12:02:32.733Z,51.48
2023-05-21T12:05:46.113Z,50.75
2023-05-21T12:08:52.812Z,51.76
2023-05-21T12:11:56.845Z,52.96
2023-05-21T12:15:00.050Z,52.23
2023-05-21T12:18:03.244Z,52.34
2023-05-21T12:21:06.823Z,51.43
2023-05-21T12:24:09.457Z,54.35
2023-05-21T12:27:16.735Z,52.24
2023-05-21T12:30:19.673Z,53.09
2023-05-21T12:33:25.033Z,53.53
2023-05-21T12:36:29.319Z,52.55
2023-05-21T12:39:32.708Z,52.60
2023-05-21T12:42:40.074Z,50.58
2023-05-21T12:45:44.094Z,50.78
2023-05-21T12:48:51.464Z,51.12
2023-05-21T12:51:57.648Z,51.45
2023-05-21T12:55:01.118Z,52.11
2023-05-21T12:58:08.786Z,52.00
2023-05-21T13:01:13.009Z,50.91
2023-05-21T13:04:15.846Z,52.68
2023-05-21T13:07:19.606Z,51.33
2023-05-21T13:10:22.781Z,51.50
2023-05-21T13:13:26.752Z,49.42
2023-05-21T13:16:29.515Z,49.26
2023-05-21T13:19:32.272Z,51.17
2023-05-21T13:22:35.419Z,50.84
2023-05-21T13:25:38.091Z,48.02
2023-05-21T13:28:42.743Z,48.57
2023-05-21T13:31:45.694Z,49.42
2023-05-21T13:34:48.931Z,49.56
2023-05-21T13:37:51.734Z,48.73
2023-05-21T13:40:54.349Z,47.44
2023-05-21T13:44:00.468Z,46.62
2023-05-21T13:47:03.214Z,45.90
2023-05-21T13:50:06.705Z,47.01
2023-05-21T13:53:09.373Z,44.90
2023-05-21T13:56:12.096Z,44.76
2023-05-21T13:59:16.083Z,43.78
2023-05-21T14:02:18.736Z,43.84
2023-05-21T14:05:21.412Z,43.57
2023-05-21T14:08:27.430Z,43.65
2023-05-21T14:11:32.225Z,45.75
2023-05-21T14:14:36.261Z,45.65
2023-05-21T14:17:40.219Z,44.78
2023-05-21T14:20:43.066Z,45.19
2023-05-21T14:23:45.696Z,44.94
2023-05-21T14:26:48.406Z,50.37
2023-05-21T14:29:52.418Z,51.08
2023-05-21T14:32:56.613Z,46.90
2023-05-21T14:36:00.686Z,47.09
2023-05-21T14:39:03.576Z,45.65
2023-05-21T14:42:06.469Z,48.04
2023-05-21T14:45:18.984Z,47.72
2023-05-21T14:48:23.885Z,47.41
2023-05-21T14:51:26.531Z,56.17
2023-05-21T14:54:29.197Z,59.05
2023-05-21T14:57:31.824Z,60.01
2023-05-21T15:00:36.615Z,59.38
2023-05-21T15:03:39.365Z,57.55
2023-05-21T15:06:42.192Z,53.41
2023-05-21T15:09:44.904Z,52.24
2023-05-21T15:12:47.606Z,51.27
2023-05-21T15:15:51.652Z,52.75
2023-05-21T15:18:54.408Z,53.15
2023-05-21T15:21:57.078Z,52.55
2023-05-21T15:24:59.742Z,55.98
2023-05-21T15:28:02.387Z,59.80
2023-05-21T15:31:06.365Z,62.86
2023-05-21T15:34:09.007Z,63.03
2023-05-21T15:37:11.667Z,64.04
2023-05-21T15:40:15.091Z,66.09
2023-05-21T15:43:17.927Z,65.62
2023-05-21T15:46:22.045Z,64.62
2023-05-21T15:49:24.701Z,64.02
2023-05-21T15:52:27.332Z,64.67
2023-05-21T15:55:33.008Z,67.76
2023-05-21T15:58:35.689Z,68.22
2023-05-21T16:01:40.024Z,68.32
2023-05-21T16:04:42.660Z,70.21
2023-05-21T16:07:46.157Z,74.79
2023-05-21T16:10:48.779Z,76.24
2023-05-21T16:13:51.415Z,75.48
2023-05-21T16:16:55.499Z,74.00
2023-05-21T16:19:58.162Z,73.11
2023-05-21T16:23:00.784Z,73.19
2023-05-21T16:26:03.401Z,73.05
2023-05-21T16:29:06.120Z,72.84
2023-05-21T16:32:10.642Z,72.77
2023-05-21T16:35:13.311Z,76.84
2023-05-21T16:38:16.229Z,77.48
2023-05-21T16:41:19.027Z,74.25
2023-05-21T16:44:21.665Z,73.72
2023-05-21T16:47:25.660Z,74.60
2023-05-21T16:50:28.270Z,75.34
2023-05-21T16:53:30.907Z,74.52
2023-05-21T16:56:33.556Z,76.75
2023-05-21T16:59:36.181Z,77.49
2023-05-21T17:02:40.735Z,75.51
2023-05-21T17:05:43.591Z,76.46
2023-05-21T17:08:46.245Z,77.92
2023-05-21T17:11:49.033Z,77.16
2023-05-21T17:14:52.218Z,77.55
2023-05-21T17:17:56.309Z,78.51
2023-05-21T17:20:59.457Z,79.20
2023-05-21T17:24:02.103Z,78.31
2023-05-21T17:27:04.866Z,77.97
2023-05-21T17:30:10.090Z,79.07
2023-05-21T17:33:14.725Z,79.01
2023-05-21T17:36:17.389Z,78.47
2023-05-21T17:39:20.521Z,78.74
2023-05-21T17:42:23.175Z,78.88
2023-05-21T17:45:25.819Z,80.81
2023-05-21T17:48:29.793Z,81.66
2023-05-21T17:51:32.527Z,82.21
2023-05-21T17:54:35.288Z,84.27
2023-05-21T17:57:37.923Z,84.18
2023-05-21T18:00:40.666Z,82.85
2023-05-21T18:03:44.725Z,81.48
2023-05-21T18:06:47.368Z,82.28
2023-05-21T18:09:50.221Z,82.53
2023-05-21T18:12:52.847Z,83.93
2023-05-21T18:15:56.214Z,83.58
2023-05-21T18:19:02.058Z,84.60
2023-05-21T18:22:05.234Z,84.03
2023-05-21T18:25:09.207Z,84.09
2023-05-21T18:28:11.868Z,84.35
2023-05-21T18:31:16.379Z,84.62
2023-05-21T18:34:20.387Z,85.82
2023-05-21T18:37:23.019Z,85.07
2023-05-21T18:40:30.395Z,86.06
2023-05-21T18:43:33.391Z,85.87
2023-05-21T18:46:36.160Z,86.46
2023-05-21T18:49:40.225Z,87.06
2023-05-21T18:52:42.926Z,87.00
2023-05-21T18:55:45.598Z,87.63
2023-05-21T18:58:48.558Z,88.73
2023-05-21T19:01:51.292Z,89.06
2023-05-21T19:04:55.553Z,89.01
2023-05-21T19:07:59.486Z,89.38
2023-05-21T19:11:02.286Z,89.41
2023-05-21T19:14:05.264Z,88.25
2023-05-21T19:17:08.345Z,87.84
2023-05-21T19:20:24.049Z,87.51
2023-05-21T19:23:26.764Z,87.59
2023-05-21T19:26:29.391Z,87.90
2023-05-21T19:29:32.008Z,86.43
2023-05-21T19:32:34.672Z,87.43
2023-05-21T19:35:38.848Z,87.46
2023-05-21T19:38:48.029Z,87.80
2023-05-21T19:41:51.526Z,88.11
2023-05-21T19:44:54.226Z,88.41
2023-05-21T19:47:56.933Z,88.31
2023-05-21T19:51:00.995Z,87.96
2023-05-21T19:54:03.685Z,88.05
2023-05-21T19:57:06.843Z,88.58
2023-05-21T20:00:11.041Z,88.65
2023-05-21T20:03:13.828Z,88.82
2023-05-21T20:06:19.107Z,88.96
2023-05-21T20:09:21.847Z,89.64
2023-05-21T20:12:24.503Z,89.55
2023-05-21T20:15:27.130Z,89.59
2023-05-21T20:18:29.780Z,90.09
2023-05-21T20:21:33.822Z,89.91
2023-05-21T20:24:36.440Z,88.96
2023-05-21T20:27:39.716Z,88.90
2023-05-21T20:30:53.588Z,88.93
2023-05-21T20:33:56.857Z,89.00
2023-05-21T20:37:02.248Z,88.95
2023-05-21T20:40:07.039Z,87.30
2023-05-21T20:43:11.914Z,87.60
2023-05-21T20:46:18.170Z,87.36
2023-05-21T20:49:24.589Z,87.88
2023-05-21T20:52:28.657Z,86.19
2023-05-21T20:55:34.576Z,86.57
2023-05-21T20:58:39.843Z,86.81
2023-05-21T21:01:42.676Z,86.88
2023-05-21T21:04:45.821Z,85.89
2023-05-21T21:07:49.791Z,85.30
2023-05-21T21:10:52.420Z,85.54
2023-05-21T21:13:55.062Z,86.23
2023-05-21T21:16:57.678Z,85.54
2023-05-21T21:20:00.313Z,86.00
2023-05-21T21:23:04.354Z,85.12
2023-05-21T21:26:07.130Z,84.82
2023-05-21T21:29:09.772Z,85.41
2023-05-21T21:32:12.716Z,85.76
2023-05-21T21:35:15.430Z,85.78
2023-05-21T21:38:19.449Z,86.16
2023-05-21T21:41:22.405Z,86.09
2023-05-21T21:44:25.096Z,85.17
2023-05-21T21:47:27.773Z,84.76
2023-05-21T21:50:30.402Z,84.29
2023-05-21T21:53:34.414Z,85.03
2023-05-21T21:56:37.058Z,84.92
2023-05-21T21:59:39.957Z,84.75
2023-05-21T22:02:42.868Z,85.05
2023-05-21T22:05:46.096Z,85.38
2023-05-21T22:08:50.115Z,84.78
2023-05-21T22:11:53.334Z,85.50
2023-05-21T22:14:56.861Z,86.51
2023-05-21T22:18:00.803Z,86.35
2023-05-21T22:21:03.760Z,86.30
2023-05-21T22:24:14.971Z,86.42
2023-05-21T22:27:27.120Z,86.16
2023-05-21T22:30:29.798Z,85.77
2023-05-21T22:33:32.475Z,86.31
2023-05-21T22:36:35.132Z,85.97
2023-05-21T22:39:39.242Z,85.96
2023-05-21T22:42:41.959Z,86.38
2023-05-21T22:45:44.606Z,86.42
2023-05-21T22:48:47.253Z,86.29
2023-05-21T22:51:50.983Z,86.42
2023-05-21T22:54:54.989Z,86.38
2023-05-21T22:57:57.619Z,86.64
2023-05-21T23:01:00.374Z,86.83
2023-05-21T23:04:03.027Z,86.77
2023-05-21T23:07:05.813Z,86.90
2023-05-21T23:10:10.675Z,86.48
2023-05-21T23:13:13.699Z,86.44
2023-05-21T23:16:16.894Z,86.44
2023-05-21T23:19:19.569Z,87.12
2023-05-21T23:22:22.581Z,87.31
2023-05-21T23:25:26.541Z,88.49
2023-05-21T23:28:29.161Z,87.68
2023-05-21T23:31:32.795Z,88.03
2023-05-21T23:34:35.463Z,87.36
2023-05-21T23:37:38.152Z,87.32
2023-05-21T23:40:43.330Z,88.19
2023-05-21T23:43:45.959Z,87.76
2023-05-21T23:46:49.876Z,88.03
2023-05-21T23:49:52.872Z,88.32
2023-05-21T23:52:55.605Z,87.87
2023-05-21T23:55:59.584Z,87.90
2023-05-21T23:59:02.208Z,88.06
